X  Sluiten METAR luchtvaart weer gegevens      YMML Melbourne International Airport
Temperatuur
45°F Temperatuur
43°F Dauwpunt
93% Vochtigheid



Wind
6 MPH
10 KM/U
3 M/S
5 KTS



300°
WNW
Huidig weer

Mist Mist
Luchtdruk 1019.98 (hPa) - 30.12 (inHg)
Zicht 0.1 (mijl) - 0.2 (km)
Vliegveld
Vliegveld code YMML

Locatie : Melbourne International Airport
Afstand: 18 (mi)

Metar:
YMML 141800Z 30005KT 0200 FG 07/06 Q1020 OBSCURED

Tijd: 15-06-2024 04:00 AEST